Time;durP1;ratioP1;P1;durP2;ratioP2;P2;SDS_P1;SDS_P2;PMS_P1;PMS_P2;Temp;Humidity;BMP_temperature;BMP_pressure;BME280_temperature;BME280_humidity;BME280_pressure;Samples;Min_cycle;Max_cycle;Signal;HPM_P1;HPM_P2
2022/07/10 00:00:53;;;;;;;1999.90;999.90;;;;;;;21.56;49.65;95896.63;5051225;28;20029;-72
2022/07/10 00:03:18;;;;;;;1999.90;999.90;;;;;;;21.59;49.70;95897.84;5043040;28;20541;-71
2022/07/10 00:05:44;;;;;;;1999.90;999.90;;;;;;;21.91;48.69;95893.84;5050883;28;20112;-71
2022/07/10 00:08:09;;;;;;;1999.90;999.90;;;;;;;21.58;49.26;95877.31;5052195;28;20087;-71
2022/07/10 00:10:35;;;;;;;1999.90;999.90;;;;;;;20.80;50.51;95866.38;5050564;28;20177;-72
2022/07/10 00:13:00;;;;;;;1999.90;999.90;;;;;;;20.99;50.53;95892.69;5051681;28;20032;-71
2022/07/10 00:15:26;;;;;;;1999.90;999.90;;;;;;;21.09;50.39;95897.56;5050285;28;20029;-71
2022/07/10 00:17:51;;;;;;;1999.90;999.90;;;;;;;21.36;49.88;95900.47;5051416;28;20044;-71
2022/07/10 00:20:17;;;;;;;1999.90;999.90;;;;;;;20.59;51.99;95903.72;5050644;28;20033;-71
2022/07/10 00:22:42;;;;;;;1999.90;999.90;;;;;;;20.87;51.81;95900.91;5051820;28;20095;-72
2022/07/10 00:25:11;;;;;;;1999.90;999.90;;;;;;;20.73;52.25;95915.66;5043160;28;20013;-71
2022/07/10 00:27:36;;;;;;;1999.90;999.90;;;;;;;20.33;54.73;95929.31;5052457;28;20021;-71
2022/07/10 00:30:02;;;;;;;1999.90;999.90;;;;;;;19.46;58.93;95916.50;5050641;28;20025;-71
2022/07/10 00:32:28;;;;;;;1999.90;999.90;;;;;;;19.30;61.72;95923.75;5051439;28;20028;-71
2022/07/10 00:34:53;;;;;;;1999.90;999.90;;;;;;;18.81;64.40;95923.78;5049995;28;20094;-71
2022/07/10 00:37:21;;;;;;;1999.90;999.90;;;;;;;18.55;66.04;95938.31;5051709;28;20418;-71
2022/07/10 00:39:46;;;;;;;1999.90;999.90;;;;;;;18.27;68.64;95946.25;5051590;28;20040;-71
2022/07/10 00:42:13;;;;;;;1999.90;999.90;;;;;;;17.72;71.11;95927.75;5045929;28;20029;-72
2022/07/10 00:44:40;;;;;;;1999.90;999.90;;;;;;;17.92;71.50;95948.50;5050038;28;20083;-71
2022/07/10 00:47:07;;;;;;;1999.90;999.90;;;;;;;18.09;72.37;95944.84;5050443;28;20024;-71
2022/07/10 00:49:33;;;;;;;1999.90;999.90;;;;;;;17.86;73.03;95914.81;5050803;28;20041;-71
2022/07/10 00:52:01;;;;;;;1999.90;999.90;;;;;;;18.23;72.08;95921.09;5051152;28;20025;-70
2022/07/10 00:54:28;;;;;;;1999.90;999.90;;;;;;;18.06;73.94;95926.66;5051229;28;20029;-71
2022/07/10 00:56:53;;;;;;;1999.90;999.90;;;;;;;18.31;73.77;95916.72;5048891;28;20044;-71
2022/07/10 00:59:19;;;;;;;1999.90;999.90;;;;;;;18.35;73.57;95909.56;5049920;28;20033;-71
2022/07/10 01:01:45;;;;;;;1999.90;999.90;;;;;;;18.19;74.91;95922.91;5049400;28;20025;-70
2022/07/10 01:04:10;;;;;;;1999.90;999.90;;;;;;;18.41;75.08;95930.56;5048914;28;20029;-73
2022/07/10 01:06:36;;;;;;;1999.90;999.90;;;;;;;18.38;75.25;95908.91;5048325;28;20086;-71
2022/07/10 01:09:01;;;;;;;1999.90;999.90;;;;;;;18.36;75.69;95913.81;5051604;28;20035;-72
2022/07/10 01:11:26;;;;;;;1999.90;999.90;;;;;;;18.38;75.47;95917.00;5050297;28;20025;-71
2022/07/10 01:13:52;;;;;;;1999.90;999.90;;;;;;;18.06;76.12;95922.06;5049308;28;20108;-70
2022/07/10 01:16:17;;;;;;;1999.90;999.90;;;;;;;18.34;75.53;95900.69;5050919;28;20103;-71
2022/07/10 01:18:43;;;;;;;1999.90;999.90;;;;;;;17.84;75.13;95898.22;5049613;28;20125;-71
2022/07/10 01:21:31;;;;;;;1999.90;999.90;;;;;;;18.28;75.86;95917.41;5050356;28;20017;-70
2022/07/10 01:23:57;;;;;;;1999.90;999.90;;;;;;;18.07;76.05;95902.13;5050377;28;20064;-71
2022/07/10 01:26:23;;;;;;;1999.90;999.90;;;;;;;18.01;75.66;95895.34;5050513;28;20597;-70
2022/07/10 01:28:50;;;;;;;1999.90;999.90;;;;;;;18.43;75.73;95897.91;5049140;28;20037;-71
2022/07/10 01:31:24;;;;;;;1999.90;999.90;;;;;;;18.60;75.06;95911.16;5046173;28;20017;-70
2022/07/10 01:33:49;;;;;;;1999.90;999.90;;;;;;;18.44;74.55;95897.56;5045337;28;20043;-70
2022/07/10 01:36:15;;;;;;;1999.90;999.90;;;;;;;18.51;75.02;95904.31;5049850;28;20392;-70
2022/07/10 01:38:40;;;;;;;1999.90;999.90;;;;;;;18.56;74.73;95907.56;5049779;28;20028;-71
2022/07/10 01:41:08;;;;;;;1999.90;999.90;;;;;;;18.40;75.07;95896.66;5049539;28;20691;-70
2022/07/10 01:43:34;;;;;;;1999.90;999.90;;;;;;;18.44;75.28;95894.09;5049189;28;20028;-70
2022/07/10 01:45:59;;;;;;;1999.90;999.90;;;;;;;18.04;75.97;95885.84;5048799;28;20040;-71
2022/07/10 01:48:24;;;;;;;1999.90;999.90;;;;;;;17.98;75.58;95874.50;5048821;28;20473;-71
2022/07/10 01:50:49;;;;;;;1999.90;999.90;;;;;;;18.05;75.73;95868.56;5047808;28;20025;-70
2022/07/10 01:53:15;;;;;;;1999.90;999.90;;;;;;;18.42;75.55;95872.06;5046806;28;20029;-70
2022/07/10 01:55:40;;;;;;;1999.90;999.90;;;;;;;18.75;75.30;95873.91;5043753;28;20029;-71
2022/07/10 01:58:05;;;;;;;1999.90;999.90;;;;;;;18.87;75.66;95873.91;5029676;28;20056;-71
2022/07/10 02:00:31;;;;;;;1999.90;999.90;;;;;;;18.66;74.67;95877.47;5047062;28;20032;-71
2022/07/10 02:05:40;;;;;;;1999.90;999.90;;;;;;;19.08;74.70;95868.34;5043352;28;20047;-71
2022/07/10 02:08:06;;;;;;;1999.90;999.90;;;;;;;19.20;74.73;95857.56;5049566;28;20025;-70
2022/07/10 02:10:31;;;;;;;1999.90;999.90;;;;;;;19.31;74.30;95857.88;5048266;28;20068;-70
2022/07/10 02:12:57;;;;;;;1999.90;999.90;;;;;;;19.36;73.89;95860.31;5049196;28;20573;-70
2022/07/10 02:15:23;;;;;;;1999.90;999.90;;;;;;;19.46;73.78;95863.31;5048222;28;20669;-69
2022/07/10 02:17:48;;;;;;;1999.90;999.90;;;;;;;19.60;73.72;95873.72;5048677;28;20520;-71
2022/07/10 02:20:14;;;;;;;1999.90;999.90;;;;;;;19.59;73.46;95869.47;5041254;28;20029;-72
2022/07/10 02:22:39;;;;;;;1999.90;999.90;;;;;;;19.67;73.59;95886.66;5034581;28;20029;-71
2022/07/10 02:25:05;;;;;;;1999.90;999.90;;;;;;;19.09;72.24;95867.22;5041730;28;20030;-71
2022/07/10 02:27:30;;;;;;;1999.90;999.90;;;;;;;18.92;72.93;95870.97;5048894;28;20390;-71
2022/07/10 02:29:56;;;;;;;1999.90;999.90;;;;;;;18.98;73.78;95842.66;5047502;28;20032;-71
2022/07/10 02:32:21;;;;;;;1999.90;999.90;;;;;;;19.03;73.13;95847.03;5047942;28;20111;-71
2022/07/10 02:34:47;;;;;;;1999.90;999.90;;;;;;;19.23;72.85;95849.56;5048226;28;20032;-71
2022/07/10 02:37:12;;;;;;;1999.90;999.90;;;;;;;19.24;73.05;95834.16;5049259;28;20693;-71
2022/07/10 02:39:37;;;;;;;1999.90;999.90;;;;;;;19.15;72.95;95811.97;5049523;28;20107;-71
2022/07/10 02:42:03;;;;;;;1999.90;999.90;;;;;;;19.55;73.13;95855.09;5047014;28;20033;-72
2022/07/10 02:44:29;;;;;;;1999.90;999.90;;;;;;;19.55;73.05;95859.66;5043637;28;20033;-71
2022/07/10 02:46:54;;;;;;;1999.90;999.90;;;;;;;19.56;73.22;95861.28;5045700;28;20049;-71
2022/07/10 02:49:20;;;;;;;1999.90;999.90;;;;;;;18.77;70.85;95785.41;5047169;28;20466;-71
2022/07/10 02:51:45;;;;;;;1999.90;999.90;;;;;;;19.04;72.55;95862.06;5048558;28;20470;-71
2022/07/10 02:54:10;;;;;;;1999.90;999.90;;;;;;;18.83;72.71;95813.69;5048793;28;20102;-70
2022/07/10 02:56:36;;;;;;;1999.90;999.90;;;;;;;19.04;73.17;95830.53;5048658;28;20033;-71
2022/07/10 02:59:01;;;;;;;1999.90;999.90;;;;;;;18.78;72.53;95808.53;5047994;28;20504;-71
2022/07/10 03:01:27;;;;;;;1999.90;999.90;;;;;;;18.94;72.64;95825.59;5047164;28;20039;-70
2022/07/10 03:03:52;;;;;;;1999.90;999.90;;;;;;;18.85;72.43;95833.03;5048861;28;20039;-70
2022/07/10 03:06:18;;;;;;;1999.90;999.90;;;;;;;18.85;73.15;95860.78;5047672;28;20078;-70
2022/07/10 03:08:43;;;;;;;1999.90;999.90;;;;;;;18.57;73.01;95811.34;5048501;28;20032;-72
2022/07/10 03:11:09;;;;;;;1999.90;999.90;;;;;;;18.96;73.23;95863.78;5041208;28;20034;-71
2022/07/10 03:13:34;;;;;;;1999.90;999.90;;;;;;;18.94;73.21;95883.00;5040524;28;20036;-70
2022/07/10 03:15:59;;;;;;;1999.90;999.90;;;;;;;18.68;73.11;95834.03;5046635;28;20029;-70
2022/07/10 03:18:25;;;;;;;1999.90;999.90;;;;;;;18.67;73.08;95825.16;5049009;28;20061;-70
2022/07/10 03:20:50;;;;;;;1999.90;999.90;;;;;;;18.73;73.15;95851.91;5047781;28;20025;-70
2022/07/10 03:23:16;;;;;;;1999.90;999.90;;;;;;;18.45;73.63;95849.88;5048604;28;20472;-70
2022/07/10 03:25:41;;;;;;;1999.90;999.90;;;;;;;18.67;73.28;95864.78;5047574;28;20516;-70
2022/07/10 03:28:06;;;;;;;1999.90;999.90;;;;;;;18.48;73.27;95837.63;5048329;28;20481;-70
2022/07/10 03:30:32;;;;;;;1999.90;999.90;;;;;;;18.53;73.64;95846.28;5050790;28;20108;-70
2022/07/10 03:32:58;;;;;;;1999.90;999.90;;;;;;;18.38;73.47;95836.97;5050961;28;20028;-70
2022/07/10 03:35:25;;;;;;;1999.90;999.90;;;;;;;18.50;73.50;95846.94;5051642;28;20029;-70
2022/07/10 03:37:50;;;;;;;1999.90;999.90;;;;;;;18.44;73.15;95845.59;5053415;28;20022;-70
2022/07/10 03:40:16;;;;;;;1999.90;999.90;;;;;;;18.55;73.65;95880.97;5051425;28;20028;-70
2022/07/10 03:42:41;;;;;;;1999.90;999.90;;;;;;;18.42;73.69;95869.38;5051283;28;20128;-70
2022/07/10 03:45:07;;;;;;;1999.90;999.90;;;;;;;17.79;74.25;95821.19;5051549;28;20025;-71
2022/07/10 03:47:32;;;;;;;1999.90;999.90;;;;;;;18.24;74.74;95851.88;5053261;28;20174;-70
2022/07/10 03:49:57;;;;;;;1999.90;999.90;;;;;;;18.55;73.81;95857.50;5047531;28;20029;-70
2022/07/10 03:52:23;;;;;;;1999.90;999.90;;;;;;;18.20;73.10;95867.91;5052250;28;20083;-70
2022/07/10 03:54:48;;;;;;;1999.90;999.90;;;;;;;18.22;73.68;95876.47;5052340;28;20025;-70
2022/07/10 04:00:14;;;;;;;1999.90;999.90;;;;;;;18.32;73.26;95869.81;5008060;28;20026;-70
2022/07/10 04:02:39;;;;;;;1999.90;999.90;;;;;;;18.56;73.38;95860.97;5041255;28;20029;-70
2022/07/10 04:05:08;;;;;;;1999.90;999.90;;;;;;;18.66;73.41;95880.16;5038431;28;20409;-70
2022/07/10 04:07:37;;;;;;;1999.90;999.90;;;;;;;18.44;72.45;95854.47;5051499;28;20429;-69
2022/07/10 04:10:03;;;;;;;1999.90;999.90;;;;;;;18.47;71.75;95834.16;5051544;28;20029;-70
2022/07/10 04:12:29;;;;;;;1999.90;999.90;;;;;;;18.33;71.84;95817.56;5050710;28;20029;-70
2022/07/10 04:14:56;;;;;;;1999.90;999.90;;;;;;;18.43;71.99;95844.81;5051693;28;20031;-70
2022/07/10 04:17:21;;;;;;;1999.90;999.90;;;;;;;18.29;72.45;95811.25;5051932;28;20115;-70
2022/07/10 04:19:47;;;;;;;1999.90;999.90;;;;;;;18.32;72.49;95830.22;5050347;28;20370;-69
2022/07/10 04:22:12;;;;;;;1999.90;999.90;;;;;;;18.81;71.92;95849.09;5051666;28;20037;-70
2022/07/10 04:24:38;;;;;;;1999.90;999.90;;;;;;;18.31;69.78;95782.84;5051580;28;20521;-70
2022/07/10 04:27:03;;;;;;;1999.90;999.90;;;;;;;18.31;70.87;95798.25;5052339;28;20044;-71
2022/07/10 04:29:29;;;;;;;1999.90;999.90;;;;;;;18.84;70.36;95834.94;5051055;28;20059;-70
2022/07/10 04:31:54;;;;;;;1999.90;999.90;;;;;;;18.84;70.13;95845.72;5046750;28;20064;-70
2022/07/10 04:34:19;;;;;;;1999.90;999.90;;;;;;;18.77;69.99;95845.50;5050083;28;20118;-70
2022/07/10 04:36:45;;;;;;;1999.90;999.90;;;;;;;18.40;70.94;95858.94;5047871;28;20025;-70
2022/07/10 04:39:10;;;;;;;1999.90;999.90;;;;;;;18.59;70.73;95846.84;5052218;28;20032;-71
2022/07/10 04:41:36;;;;;;;1999.90;999.90;;;;;;;18.16;71.19;95811.25;5049254;28;20053;-70
2022/07/10 04:44:01;;;;;;;1999.90;999.90;;;;;;;17.99;71.78;95833.00;5052193;28;20021;-70
2022/07/10 04:46:27;;;;;;;1999.90;999.90;;;;;;;18.52;72.18;95862.78;5049458;28;20028;-69
2022/07/10 04:48:52;;;;;;;1999.90;999.90;;;;;;;18.00;72.14;95817.63;5051158;28;20024;-70
2022/07/10 04:51:18;;;;;;;1999.90;999.90;;;;;;;18.24;71.27;95865.34;5049748;28;20100;-70
2022/07/10 04:53:43;;;;;;;1999.90;999.90;;;;;;;17.94;72.44;95870.88;5050661;28;20024;-70
2022/07/10 04:56:09;;;;;;;1999.90;999.90;;;;;;;17.91;72.03;95833.88;5049824;28;20033;-70
2022/07/10 04:58:34;;;;;;;1999.90;999.90;;;;;;;18.18;71.68;95875.53;5050856;28;20021;-71
2022/07/10 05:01:00;;;;;;;1999.90;999.90;;;;;;;18.21;71.19;95847.94;5049130;28;20032;-70
2022/07/10 05:03:25;;;;;;;1999.90;999.90;;;;;;;17.70;71.14;95798.13;5051868;28;20025;-70
2022/07/10 05:05:50;;;;;;;1999.90;999.90;;;;;;;18.18;71.42;95880.94;5046506;28;20513;-70
2022/07/10 05:08:16;;;;;;;1999.90;999.90;;;;;;;17.71;72.13;95834.69;5051578;28;20029;-71
2022/07/10 05:10:41;;;;;;;1999.90;999.90;;;;;;;17.57;72.32;95835.78;5047493;28;20071;-70
2022/07/10 05:13:07;;;;;;;1999.90;999.90;;;;;;;17.84;72.91;95899.00;5042946;28;20469;-71
2022/07/10 05:15:32;;;;;;;1999.90;999.90;;;;;;;18.06;71.92;95853.97;5048916;28;20191;-70
2022/07/10 05:17:57;;;;;;;1999.90;999.90;;;;;;;17.59;72.53;95860.44;5051393;28;20057;-71
2022/07/10 05:20:23;;;;;;;1999.90;999.90;;;;;;;17.66;71.67;95852.63;5049162;28;20025;-71
2022/07/10 05:22:48;;;;;;;1999.90;999.90;;;;;;;18.50;70.08;95870.41;5050101;28;20036;-70
2022/07/10 05:25:14;;;;;;;1999.90;999.90;;;;;;;18.38;69.72;95877.38;5049509;28;20025;-72
2022/07/10 05:27:39;;;;;;;1999.90;999.90;;;;;;;18.45;70.63;95874.91;5049684;28;20029;-71
2022/07/10 05:30:05;;;;;;;1999.90;999.90;;;;;;;18.74;69.09;95873.13;5049621;28;20818;-70
2022/07/10 05:32:30;;;;;;;1999.90;999.90;;;;;;;18.51;69.22;95872.75;5044750;28;20025;-71
2022/07/10 05:34:59;;;;;;;1999.90;999.90;;;;;;;18.84;68.41;95912.31;5046652;28;20042;-72
2022/07/10 05:37:24;;;;;;;1999.90;999.90;;;;;;;18.50;68.62;95868.50;5050285;28;20076;-72
2022/07/10 05:39:50;;;;;;;1999.90;999.90;;;;;;;17.73;70.60;95873.63;5049805;28;20473;-72
2022/07/10 05:42:15;;;;;;;1999.90;999.90;;;;;;;18.47;69.03;95863.00;5051220;28;20040;-70
2022/07/10 05:44:40;;;;;;;1999.90;999.90;;;;;;;18.33;68.17;95847.19;5046482;28;20022;-70
2022/07/10 05:47:06;;;;;;;1999.90;999.90;;;;;;;18.22;68.40;95870.25;5048103;28;20497;-70
2022/07/10 05:49:32;;;;;;;1999.90;999.90;;;;;;;18.38;67.87;95884.66;5047888;28;20063;-70
2022/07/10 05:51:58;;;;;;;1999.90;999.90;;;;;;;17.99;68.29;95867.22;5046039;28;20104;-72
2022/07/10 05:54:23;;;;;;;1999.90;999.90;;;;;;;18.76;66.90;95894.34;5045290;28;20470;-70
2022/07/10 05:56:48;;;;;;;1999.90;999.90;;;;;;;18.75;65.84;95887.41;5047443;28;20017;-70
2022/07/10 05:59:14;;;;;;;1999.90;999.90;;;;;;;18.87;64.83;95890.06;5049533;28;20032;-70
2022/07/10 06:01:40;;;;;;;1999.90;999.90;;;;;;;18.83;65.20;95859.53;5043812;28;20094;-69
2022/07/10 06:04:05;;;;;;;1999.90;999.90;;;;;;;19.52;63.14;95877.34;5047075;28;20104;-70
2022/07/10 06:06:31;;;;;;;1999.90;999.90;;;;;;;19.28;63.80;95893.59;5046885;28;20423;-70
2022/07/10 06:08:56;;;;;;;1999.90;999.90;;;;;;;18.74;63.90;95837.31;5050416;28;20021;-70
2022/07/10 06:11:21;;;;;;;1999.90;999.90;;;;;;;18.43;66.46;95895.22;5048108;28;20052;-70
2022/07/10 06:13:47;;;;;;;1999.90;999.90;;;;;;;18.17;65.80;95864.00;5049034;28;20025;-71
2022/07/10 06:16:12;;;;;;;1999.90;999.90;;;;;;;18.90;64.51;95849.75;5043732;28;20043;-70
2022/07/10 06:18:37;;;;;;;1999.90;999.90;;;;;;;19.05;63.35;95853.66;5045016;28;20017;-70
2022/07/10 06:21:03;;;;;;;1999.90;999.90;;;;;;;19.26;62.52;95863.50;5046801;28;20021;-71
2022/07/10 06:23:28;;;;;;;1999.90;999.90;;;;;;;19.16;63.05;95895.22;5048637;28;20385;-70
2022/07/10 06:25:54;;;;;;;1999.90;999.90;;;;;;;19.23;62.91;95908.88;5049234;28;20488;-70
2022/07/10 06:28:19;;;;;;;1999.90;999.90;;;;;;;18.82;64.01;95858.75;5049054;28;20031;-72
2022/07/10 06:30:48;;;;;;;1999.90;999.90;;;;;;;18.63;64.22;95885.44;5046253;28;20070;-73
2022/07/10 06:33:13;;;;;;;1999.90;999.90;;;;;;;18.27;64.53;95835.84;5049748;28;20029;-71
2022/07/10 06:35:39;;;;;;;1999.90;999.90;;;;;;;19.00;63.84;95870.06;5046212;28;20033;-70
2022/07/10 06:38:04;;;;;;;1999.90;999.90;;;;;;;18.30;64.57;95862.09;5050331;28;20457;-73
2022/07/10 06:40:31;;;;;;;1999.90;999.90;;;;;;;19.15;62.96;95888.25;5048388;28;20040;-69
2022/07/10 06:42:57;;;;;;;1999.90;999.90;;;;;;;19.26;61.98;95869.69;5050944;28;20040;-71
2022/07/10 06:45:22;;;;;;;1999.90;999.90;;;;;;;19.29;62.11;95895.94;5047540;28;20047;-75
2022/07/10 06:48:01;;;;;;;1999.90;999.90;;;;;;;19.48;61.67;95892.66;5049597;28;20025;-74
2022/07/10 06:50:32;;;;;;;1999.90;999.90;;;;;;;19.08;62.13;95900.72;5047690;28;20170;-74
2022/07/10 06:52:58;;;;;;;1999.90;999.90;;;;;;;19.19;63.15;95896.41;5048687;28;20385;-71
2022/07/10 06:55:25;;;;;;;1999.90;999.90;;;;;;;20.12;60.61;95889.03;5049018;28;20021;-72
2022/07/10 06:57:51;;;;;;;1999.90;999.90;;;;;;;19.52;61.62;95900.84;5047424;28;20033;-72
2022/07/10 07:00:16;;;;;;;1999.90;999.90;;;;;;;19.39;60.97;95892.78;5046399;28;20075;-69
2022/07/10 07:02:42;;;;;;;1999.90;999.90;;;;;;;19.20;61.61;95889.94;5048497;28;20064;-69
2022/07/10 07:05:08;;;;;;;1999.90;999.90;;;;;;;18.32;64.47;95902.94;5037813;28;20087;-69
2022/07/10 07:07:33;;;;;;;1999.90;999.90;;;;;;;18.15;66.53;95903.91;5044293;28;20033;-69
2022/07/10 07:09:59;;;;;;;1999.90;999.90;;;;;;;18.66;65.08;95900.94;5048691;28;21239;-70
2022/07/10 07:12:24;;;;;;;1999.90;999.90;;;;;;;18.72;64.96;95896.94;5049979;28;20092;-69
2022/07/10 07:14:49;;;;;;;1999.90;999.90;;;;;;;18.45;66.08;95906.44;5039050;28;20025;-70
2022/07/10 07:17:21;;;;;;;1999.90;999.90;;;;;;;18.04;67.36;95907.38;5045098;28;20072;-69
2022/07/10 07:25:14;;;;;;;1999.90;999.90;;;;;;;18.24;66.39;95908.44;5041119;28;20028;-69
2022/07/10 07:27:40;;;;;;;1999.90;999.90;;;;;;;17.92;67.07;95910.81;5043389;28;20036;-69
2022/07/10 07:30:10;;;;;;;1999.90;999.90;;;;;;;18.00;67.54;95922.59;5046709;28;20033;-69
2022/07/10 07:32:36;;;;;;;1999.90;999.90;;;;;;;18.62;65.44;95922.38;5044008;28;20497;-69
2022/07/10 07:35:03;;;;;;;1999.90;999.90;;;;;;;17.49;67.60;95932.69;5045959;28;20044;-70
2022/07/10 07:37:50;;;;;;;1999.90;999.90;;;;;;;18.04;66.63;95940.47;5048373;28;20111;-71
2022/07/10 07:40:25;;;;;;;1999.90;999.90;;;;;;;17.70;67.54;95941.53;5049354;28;20048;-69
2022/07/10 07:42:53;;;;;;;1999.90;999.90;;;;;;;17.91;67.01;95941.53;5047979;28;20029;-68
2022/07/10 07:45:18;;;;;;;1999.90;999.90;;;;;;;18.29;64.59;95937.84;5047967;28;20025;-68
2022/07/10 07:47:49;;;;;;;1999.90;999.90;;;;;;;18.89;62.98;95928.28;5048907;28;20427;-68
2022/07/10 07:50:21;;;;;;;1999.90;999.90;;;;;;;19.99;60.33;95928.81;5045892;28;20478;-68
2022/07/10 07:52:47;;;;;;;1999.90;999.90;;;;;;;20.31;59.20;95931.56;5048311;28;20036;-69
2022/07/10 07:55:14;;;;;;;1999.90;999.90;;;;;;;19.15;59.79;95942.19;5048723;28;20029;-67
2022/07/10 07:57:40;;;;;;;1999.90;999.90;;;;;;;18.99;62.24;95944.00;5047620;28;20025;-68
2022/07/10 08:00:07;;;;;;;1999.90;999.90;;;;;;;19.40;61.12;95934.06;5044044;28;20599;-67
2022/07/10 08:02:33;;;;;;;1999.90;999.90;;;;;;;18.17;63.06;95944.78;5048851;28;20029;-69
2022/07/10 08:04:59;;;;;;;1999.90;999.90;;;;;;;19.58;59.88;95938.03;5045740;28;20382;-68
2022/07/10 08:07:33;;;;;;;1999.90;999.90;;;;;;;18.56;61.72;95931.03;5045971;28;20064;-68
2022/07/10 08:09:59;;;;;;;1999.90;999.90;;;;;;;18.79;60.97;95934.91;5048463;28;20572;-68
2022/07/10 08:12:24;;;;;;;1999.90;999.90;;;;;;;19.19;59.61;95918.81;5046913;28;20033;-68
2022/07/10 08:14:49;;;;;;;1999.90;999.90;;;;;;;19.23;58.79;95921.59;5048412;28;20032;-68
2022/07/10 08:17:14;;;;;;;1999.90;999.90;;;;;;;18.70;61.10;95929.63;5051471;28;20058;-68
2022/07/10 08:19:40;;;;;;;1999.90;999.90;;;;;;;18.84;59.78;95925.81;5050261;28;20033;-67
2022/07/10 08:22:05;;;;;;;1999.90;999.90;;;;;;;18.55;60.53;95940.25;5054121;28;20051;-68
2022/07/10 08:24:30;;;;;;;1999.90;999.90;;;;;;;19.12;59.18;95926.66;5057965;28;20432;-68
2022/07/10 08:26:56;;;;;;;1999.90;999.90;;;;;;;19.34;57.84;95924.59;5052376;28;20029;-68
2022/07/10 08:29:21;;;;;;;1999.90;999.90;;;;;;;20.12;55.55;95917.94;5051303;28;20074;-68
2022/07/10 08:31:46;;;;;;;1999.90;999.90;;;;;;;19.26;56.49;95912.84;5047785;28;20033;-68
2022/07/10 08:34:12;;;;;;;1999.90;999.90;;;;;;;20.40;54.70;95926.00;5048924;28;20025;-68
2022/07/10 08:36:38;;;;;;;1999.90;999.90;;;;;;;20.59;54.23;95912.63;5050491;28;20033;-68
2022/07/10 08:39:03;;;;;;;1999.90;999.90;;;;;;;20.59;53.93;95918.03;5071040;28;20108;-67
2022/07/10 08:41:31;;;;;;;1999.90;999.90;;;;;;;19.19;55.33;95912.59;5065061;28;20536;-68
2022/07/10 08:43:56;;;;;;;1999.90;999.90;;;;;;;19.53;55.42;95908.59;5050555;28;20048;-68
2022/07/10 08:46:23;;;;;;;1999.90;999.90;;;;;;;19.45;55.86;95925.72;5049940;28;20033;-67
2022/07/10 08:48:49;;;;;;;1999.90;999.90;;;;;;;19.87;54.82;95914.59;5050107;28;20064;-68
2022/07/10 08:51:25;;;;;;;1999.90;999.90;;;;;;;19.64;55.27;95914.31;5050661;28;20448;-68
2022/07/10 08:53:51;;;;;;;1999.90;999.90;;;;;;;20.60;52.71;95908.78;5052419;28;20083;-69
2022/07/10 08:56:16;;;;;;;1999.90;999.90;;;;;;;21.17;48.86;95910.09;5050427;28;20032;-68
2022/07/10 08:58:42;;;;;;;1999.90;999.90;;;;;;;19.84;53.51;95923.34;5051984;28;20029;-68
2022/07/10 09:01:08;;;;;;;1999.90;999.90;;;;;;;19.83;54.11;95917.19;5048847;28;20108;-68
2022/07/10 09:03:33;;;;;;;1999.90;999.90;;;;;;;19.41;54.50;95936.41;5050034;28;20064;-68
2022/07/10 09:05:59;;;;;;;1999.90;999.90;;;;;;;19.35;54.92;95937.00;5050023;28;20029;-67
2022/07/10 09:08:28;;;;;;;1999.90;999.90;;;;;;;18.90;54.93;95929.84;5062994;28;20032;-68
2022/07/10 09:11:16;;;;;;;1999.90;999.90;;;;;;;18.84;54.12;95939.28;5064426;28;20017;-68
2022/07/10 09:13:52;;;;;;;1999.90;999.90;;;;;;;19.25;54.03;95926.66;5051763;28;20028;-68
2022/07/10 09:16:28;;;;;;;1999.90;999.90;;;;;;;20.57;51.33;95912.16;5049115;28;20436;-69
2022/07/10 09:18:55;;;;;;;1999.90;999.90;;;;;;;20.46;50.17;95909.19;5050741;28;20040;-68
2022/07/10 09:21:21;;;;;;;1999.90;999.90;;;;;;;21.10;49.38;95914.56;5048164;28;20354;-68
2022/07/10 09:23:48;;;;;;;1999.90;999.90;;;;;;;19.98;50.81;95912.94;5052751;28;20033;-69
2022/07/10 09:26:13;;;;;;;1999.90;999.90;;;;;;;19.59;50.47;95918.03;5049556;28;20037;-69
2022/07/10 09:28:38;;;;;;;1999.90;999.90;;;;;;;20.34;48.58;95911.19;5049053;28;20024;-68
2022/07/10 09:31:04;;;;;;;1999.90;999.90;;;;;;;21.32;47.34;95902.31;5050019;28;20108;-66
2022/07/10 09:33:30;;;;;;;1999.90;999.90;;;;;;;22.00;44.95;95899.81;5049451;28;20032;-67
2022/07/10 09:36:04;;;;;;;1999.90;999.90;;;;;;;21.15;46.31;95911.59;5048138;28;20040;-67
2022/07/10 09:38:39;;;;;;;1999.90;999.90;;;;;;;20.14;49.12;95913.75;5057982;28;20024;-69
2022/07/10 09:41:31;;;;;;;1999.90;999.90;;;;;;;20.17;48.28;95917.69;5050812;28;20052;-69
2022/07/10 09:44:01;;;;;;;;;;;;;;;21.11;46.46;95916.91;5047248;28;20050;-69
2022/07/10 09:46:31;;;;;;;1999.90;999.90;;;;;;;21.57;43.13;95909.03;5049150;28;19917;-69
2022/07/10 09:49:07;;;;;;;1999.90;999.90;;;;;;;20.38;45.70;95907.44;5049591;28;20025;-67
2022/07/10 09:51:52;;;;;;;1999.90;999.90;;;;;;;20.86;45.64;95915.56;5043411;28;20021;-69
2022/07/10 09:54:18;;;;;;;1999.90;999.90;;;;;;;20.23;45.82;95919.00;5046349;28;20060;-69
2022/07/10 09:56:46;;;;;;;1999.90;999.90;;;;;;;21.69;42.83;95921.63;5048948;28;20374;-69
2022/07/10 09:59:16;;;;;;;1999.90;999.90;;;;;;;20.25;46.06;95917.53;5048576;28;20094;-67
2022/07/10 10:01:48;;;;;;;1999.90;999.90;;;;;;;20.21;46.81;95903.13;5048622;28;20044;-69
2022/07/10 10:04:18;;;;;;;1999.90;999.90;;;;;;;20.32;47.06;95902.63;5051057;28;20021;-69
2022/07/10 10:06:53;;;;;;;1999.90;999.90;;;;;;;21.47;45.64;95896.06;5047345;28;20380;-69
2022/07/10 10:09:25;;;;;;;1999.90;999.90;;;;;;;20.56;44.98;95891.69;5048634;28;20060;-69
2022/07/10 10:12:00;;;;;;;1999.90;999.90;;;;;;;20.06;46.24;95893.09;5048570;28;20520;-67
2022/07/10 10:14:27;;;;;;;1999.90;999.90;;;;;;;20.13;45.97;95887.09;5048782;28;20059;-67
2022/07/10 10:16:55;;;;;;;1999.90;999.90;;;;;;;20.27;45.32;95917.19;5048806;28;20036;-67
2022/07/10 10:22:08;;;;;;;1999.90;999.90;;;;;;;20.31;45.16;95893.72;5048954;28;20075;-71
2022/07/10 10:24:34;;;;;;;1999.90;999.90;;;;;;;20.72;43.07;95903.25;5042414;28;20045;-68
2022/07/10 10:27:00;;;;;;;1999.90;999.90;;;;;;;20.70;43.83;95885.84;5046566;28;20708;-67
2022/07/10 10:29:26;;;;;;;1999.90;999.90;;;;;;;21.16;42.91;95897.69;5049270;28;20021;-69
2022/07/10 10:31:52;;;;;;;1999.90;999.90;;;;;;;21.43;41.13;95893.28;5048967;28;20029;-68
2022/07/10 10:34:42;;;;;;;1999.90;999.90;;;;;;;21.85;41.11;95889.84;5048376;28;20097;-70
2022/07/10 10:37:27;;;;;;;1999.90;999.90;;;;;;;21.39;42.06;95894.34;5042547;28;20426;-68
2022/07/10 10:39:54;;;;;;;1999.90;999.90;;;;;;;20.93;43.69;95881.34;5046601;28;20039;-74
2022/07/10 10:42:54;;;;;;;1999.90;999.90;;;;;;;21.14;42.98;95904.59;5048320;28;20033;-66
2022/07/10 10:45:31;;;;;;;1999.90;999.90;;;;;;;20.47;43.49;95899.16;5014269;28;20067;-69
2022/07/10 10:47:59;;;;;;;1999.90;999.90;;;;;;;22.02;40.26;95884.00;5049460;28;20037;-69
2022/07/10 10:50:59;;;;;;;1999.90;999.90;;;;;;;22.23;39.84;95878.19;5047834;28;20017;-68
2022/07/10 10:53:26;;;;;;;1999.90;999.90;;;;;;;22.08;38.59;95873.66;5025962;28;20028;-66
2022/07/10 10:56:04;;;;;;;1999.90;999.90;;;;;;;22.97;38.25;95871.63;5052630;28;20040;-68
2022/07/10 10:58:41;;;;;;;1999.90;999.90;;;;;;;22.79;38.84;95872.13;5042589;28;20021;-67
2022/07/10 11:01:29;;;;;;;1999.90;999.90;;;;;;;21.47;41.43;95899.56;5056242;28;20041;-71
2022/07/10 11:04:04;;;;;;;1999.90;999.90;;;;;;;21.49;42.39;95889.13;5039793;28;20114;-68
2022/07/10 11:06:42;;;;;;;1999.90;999.90;;;;;;;21.29;42.09;95885.63;5048946;28;20489;-69
2022/07/10 11:09:26;;;;;;;1999.90;999.90;;;;;;;22.05;40.15;95893.31;5046548;28;20490;-70